createdAt,value
2018-05-21T00:00:06.323Z,14.40
2018-05-21T00:01:06.504Z,14.36
2018-05-21T00:02:06.690Z,14.30
2018-05-21T00:03:06.861Z,14.20
2018-05-21T00:04:07.047Z,14.03
2018-05-21T00:05:07.221Z,13.99
2018-05-21T00:06:07.405Z,14.03
2018-05-21T00:07:07.882Z,13.86
2018-05-21T00:08:07.788Z,13.90
2018-05-21T00:09:07.961Z,13.72
2018-05-21T00:10:08.154Z,13.77
2018-05-21T00:11:08.326Z,13.57
2018-05-21T00:12:08.501Z,13.59
2018-05-21T00:13:08.677Z,13.52
2018-05-21T00:14:08.867Z,13.49
2018-05-21T00:15:09.068Z,13.49
2018-05-21T00:16:09.239Z,13.47
2018-05-21T00:17:09.414Z,13.56
2018-05-21T00:18:09.597Z,13.53
2018-05-21T00:19:09.776Z,13.56
2018-05-21T00:20:09.954Z,13.57
2018-05-21T00:21:10.144Z,13.62
2018-05-21T00:22:10.334Z,13.63
2018-05-21T00:23:10.519Z,13.60
2018-05-21T00:24:10.698Z,13.53
2018-05-21T00:25:10.876Z,13.52
2018-05-21T00:26:11.053Z,13.46
2018-05-21T00:27:11.241Z,13.46
2018-05-21T00:28:11.422Z,13.53
2018-05-21T00:29:11.604Z,13.52
2018-05-21T00:30:11.781Z,13.46
2018-05-21T00:31:11.961Z,13.53
2018-05-21T00:32:12.145Z,13.44
2018-05-21T00:33:12.328Z,13.47
2018-05-21T00:34:12.524Z,13.35
2018-05-21T00:35:12.691Z,13.39
2018-05-21T00:36:12.871Z,13.41
2018-05-21T00:37:13.054Z,13.41
2018-05-21T00:38:13.239Z,13.42
2018-05-21T00:39:13.417Z,13.42
2018-05-21T00:40:13.601Z,13.46
2018-05-21T00:41:13.775Z,13.44
2018-05-21T00:42:13.960Z,13.44
2018-05-21T00:43:14.135Z,13.54
2018-05-21T00:44:14.313Z,13.50
2018-05-21T00:45:14.502Z,13.49
2018-05-21T00:46:14.685Z,13.41
2018-05-21T00:47:14.867Z,13.42
2018-05-21T00:48:15.051Z,13.47
2018-05-21T00:49:15.232Z,13.47
2018-05-21T00:50:15.419Z,13.42
2018-05-21T00:51:15.593Z,13.46
2018-05-21T00:52:15.777Z,13.42
2018-05-21T00:53:15.964Z,13.42
2018-05-21T00:54:16.145Z,13.46
2018-05-21T00:55:16.325Z,13.39
2018-05-21T00:56:16.507Z,13.27
2018-05-21T00:57:16.688Z,13.20
2018-05-21T00:58:16.873Z,13.33
2018-05-21T00:59:17.054Z,13.20
2018-05-21T01:00:17.237Z,13.19
2018-05-21T01:01:17.418Z,13.28
2018-05-21T01:02:17.602Z,13.28
2018-05-21T01:03:17.797Z,13.12
2018-05-21T01:04:17.972Z,13.19
2018-05-21T01:05:18.234Z,13.19
2018-05-21T01:06:18.327Z,13.22
2018-05-21T01:07:18.508Z,13.12
2018-05-21T01:08:18.686Z,13.25
2018-05-21T01:09:18.876Z,13.20
2018-05-21T01:10:19.057Z,13.23
2018-05-21T01:11:19.244Z,13.27
2018-05-21T01:12:19.428Z,13.22
2018-05-21T01:13:19.608Z,13.19
2018-05-21T01:14:19.786Z,13.22
2018-05-21T01:15:19.968Z,13.03
2018-05-21T01:16:20.155Z,13.01
2018-05-21T01:17:20.335Z,12.87
2018-05-21T01:18:20.506Z,12.79
2018-05-21T01:19:20.687Z,12.83
2018-05-21T01:20:20.877Z,12.78
2018-05-21T01:21:21.065Z,12.87
2018-05-21T01:22:21.245Z,12.86
2018-05-21T01:23:21.419Z,12.86
2018-05-21T01:24:21.602Z,12.80
2018-05-21T01:25:21.784Z,12.78
2018-05-21T01:26:21.969Z,12.79
2018-05-21T01:27:22.148Z,12.75
2018-05-21T01:28:22.369Z,12.80
2018-05-21T01:29:22.509Z,12.82
2018-05-21T01:30:22.698Z,12.90
2018-05-21T01:31:22.883Z,12.86
2018-05-21T01:32:23.055Z,12.93
2018-05-21T01:33:23.228Z,12.90
2018-05-21T01:34:23.411Z,12.98
2018-05-21T01:35:23.591Z,12.93
2018-05-21T01:36:23.783Z,12.86
2018-05-21T01:37:23.962Z,13.00
2018-05-21T01:38:24.140Z,12.91
2018-05-21T01:39:24.321Z,12.91
2018-05-21T01:40:24.504Z,12.83
2018-05-21T01:41:24.683Z,12.79
2018-05-21T01:42:24.869Z,12.83
2018-05-21T01:43:25.054Z,12.83
2018-05-21T01:44:25.276Z,12.76
2018-05-21T01:45:25.415Z,12.73
2018-05-21T01:46:25.600Z,12.61
2018-05-21T01:47:25.781Z,12.65
2018-05-21T01:48:25.959Z,12.70
2018-05-21T01:49:26.141Z,12.67
2018-05-21T01:50:26.318Z,12.64
2018-05-21T01:51:26.506Z,12.70
2018-05-21T01:52:26.683Z,12.64
2018-05-21T01:53:26.861Z,12.53
2018-05-21T01:54:27.042Z,12.57
2018-05-21T01:55:27.228Z,12.54
2018-05-21T01:56:27.658Z,12.53
2018-05-21T01:57:27.596Z,12.54
2018-05-21T01:58:27.778Z,12.55
2018-05-21T01:59:27.966Z,12.47
2018-05-21T02:00:28.155Z,12.43
2018-05-21T02:01:28.325Z,12.45
2018-05-21T02:02:28.504Z,12.27
2018-05-21T02:03:28.682Z,12.39
2018-05-21T02:04:28.872Z,12.29
2018-05-21T02:05:29.049Z,12.29
2018-05-21T02:06:29.245Z,12.25
2018-05-21T02:07:29.427Z,12.21
2018-05-21T02:08:29.643Z,12.20
2018-05-21T02:09:29.772Z,12.31
2018-05-21T02:10:29.954Z,12.25
2018-05-21T02:11:30.139Z,12.13
2018-05-21T02:12:30.314Z,12.15
2018-05-21T02:13:30.734Z,12.13
2018-05-21T02:14:30.671Z,12.13
2018-05-21T02:15:30.860Z,12.03
2018-05-21T02:16:31.056Z,12.17
2018-05-21T02:17:31.221Z,11.95
2018-05-21T02:18:31.397Z,12.06
2018-05-21T02:19:31.583Z,12.06
2018-05-21T02:20:31.765Z,12.03
2018-05-21T02:21:31.943Z,12.09
2018-05-21T02:22:32.121Z,12.03
2018-05-21T02:23:32.306Z,12.04
2018-05-21T02:24:32.485Z,12.09
2018-05-21T02:25:32.668Z,12.04
2018-05-21T02:26:32.845Z,11.97
2018-05-21T02:27:33.030Z,11.99
2018-05-21T02:28:33.213Z,11.97
2018-05-21T02:29:33.394Z,11.87
2018-05-21T02:30:33.580Z,12.00
2018-05-21T02:31:33.756Z,11.87
2018-05-21T02:32:33.941Z,11.83
2018-05-21T02:33:34.125Z,11.84
2018-05-21T02:34:34.308Z,11.78
2018-05-21T02:35:34.488Z,11.83
2018-05-21T02:36:34.671Z,11.80
2018-05-21T02:37:34.850Z,11.86
2018-05-21T02:38:35.040Z,11.87
2018-05-21T02:39:35.217Z,11.86
2018-05-21T02:40:35.402Z,11.72
2018-05-21T02:41:35.593Z,11.72
2018-05-21T02:42:35.755Z,11.73
2018-05-21T02:43:35.939Z,11.70
2018-05-21T02:44:36.121Z,11.45
2018-05-21T02:45:36.302Z,11.63
2018-05-21T02:46:36.489Z,11.55
2018-05-21T02:47:36.913Z,11.73
2018-05-21T02:48:36.868Z,11.59
2018-05-21T02:49:37.029Z,11.68
2018-05-21T02:50:37.205Z,11.77
2018-05-21T02:51:37.403Z,11.62
2018-05-21T02:52:37.568Z,11.57
2018-05-21T02:53:37.750Z,11.63
2018-05-21T02:54:37.929Z,11.66
2018-05-21T02:55:38.107Z,11.68
2018-05-21T02:56:38.299Z,11.68
2018-05-21T02:57:38.467Z,11.63
2018-05-21T02:58:38.654Z,11.75
2018-05-21T02:59:38.833Z,11.63
2018-05-21T03:00:39.013Z,11.63
2018-05-21T03:01:39.187Z,11.60
2018-05-21T03:02:39.369Z,11.63
2018-05-21T03:03:39.541Z,11.60
2018-05-21T03:04:39.977Z,11.52
2018-05-21T03:05:39.907Z,11.51
2018-05-21T03:06:40.093Z,11.57
2018-05-21T03:07:40.258Z,11.55
2018-05-21T03:08:40.457Z,11.62
2018-05-21T03:09:40.623Z,11.69
2018-05-21T03:10:40.804Z,11.69
2018-05-21T03:11:40.984Z,11.75
2018-05-21T03:12:41.170Z,11.68
2018-05-21T03:13:41.379Z,11.77
2018-05-21T03:14:41.560Z,11.68
2018-05-21T03:15:41.730Z,11.70
2018-05-21T03:16:41.915Z,11.69
2018-05-21T03:17:42.093Z,11.73
2018-05-21T03:18:42.272Z,11.63
2018-05-21T03:19:42.462Z,11.66
2018-05-21T03:20:42.650Z,11.77
2018-05-21T03:21:43.137Z,11.78
2018-05-21T03:22:43.001Z,11.77
2018-05-21T03:23:43.188Z,11.77
2018-05-21T03:24:43.399Z,11.75
2018-05-21T03:25:43.543Z,11.75
2018-05-21T03:26:43.727Z,11.77
2018-05-21T03:27:43.911Z,11.75
2018-05-21T03:28:44.088Z,11.73
2018-05-21T03:29:44.268Z,11.83
2018-05-21T03:30:44.452Z,11.83
2018-05-21T03:31:44.629Z,11.77
2018-05-21T03:32:44.808Z,11.80
2018-05-21T03:33:44.987Z,11.73
2018-05-21T03:34:45.173Z,11.77
2018-05-21T03:35:45.344Z,11.66
2018-05-21T03:36:45.523Z,11.55
2018-05-21T03:37:45.702Z,11.51
2018-05-21T03:38:45.883Z,11.54
2018-05-21T03:39:46.067Z,11.45
2018-05-21T03:40:46.248Z,11.45
2018-05-21T03:41:46.435Z,11.50
2018-05-21T03:42:46.702Z,11.55
2018-05-21T03:43:47.042Z,11.59
2018-05-21T03:44:46.975Z,11.73
2018-05-21T03:45:47.160Z,11.73
2018-05-21T03:46:47.341Z,11.68
2018-05-21T03:47:47.522Z,11.66
2018-05-21T03:48:47.707Z,11.72
2018-05-21T03:49:47.881Z,11.73
2018-05-21T03:50:48.064Z,11.77
2018-05-21T03:51:48.243Z,11.87
2018-05-21T03:52:48.426Z,11.80
2018-05-21T03:53:48.605Z,11.66
2018-05-21T03:54:48.783Z,11.65
2018-05-21T03:55:49.203Z,11.75
2018-05-21T03:56:49.149Z,11.86
2018-05-21T03:57:49.329Z,11.88
2018-05-21T03:58:49.516Z,11.87
2018-05-21T03:59:49.690Z,11.86
2018-05-21T04:00:49.873Z,11.94
2018-05-21T04:01:50.045Z,11.91
2018-05-21T04:02:50.231Z,11.94
2018-05-21T04:03:50.410Z,12.04
2018-05-21T04:04:50.588Z,11.90
2018-05-21T04:05:50.774Z,12.09
2018-05-21T04:06:50.955Z,12.04
2018-05-21T04:07:51.139Z,11.95
2018-05-21T04:08:51.324Z,12.02
2018-05-21T04:09:51.498Z,12.09
2018-05-21T04:10:51.674Z,12.06
2018-05-21T04:11:51.919Z,12.02
2018-05-21T04:12:52.043Z,12.02
2018-05-21T04:13:52.219Z,12.07
2018-05-21T04:14:52.396Z,12.09
2018-05-21T04:15:52.578Z,12.13
2018-05-21T04:16:52.759Z,12.21
2018-05-21T04:17:52.944Z,12.32
2018-05-21T04:18:53.214Z,12.64
2018-05-21T04:19:53.302Z,13.18
2018-05-21T04:20:53.499Z,13.56
2018-05-21T04:21:53.672Z,14.22
2018-05-21T04:22:53.849Z,14.60
2018-05-21T04:23:54.032Z,15.19
2018-05-21T04:24:54.215Z,15.64
2018-05-21T04:25:54.398Z,15.92
2018-05-21T04:26:54.578Z,15.76
2018-05-21T04:27:54.763Z,15.73
2018-05-21T04:28:54.963Z,16.26
2018-05-21T04:29:55.394Z,16.23
2018-05-21T04:30:55.333Z,15.79
2018-05-21T04:31:55.516Z,16.13
2018-05-21T04:32:55.695Z,16.49
2018-05-21T04:33:55.880Z,16.51
2018-05-21T04:34:56.066Z,17.09
2018-05-21T04:35:56.255Z,17.02
2018-05-21T04:36:56.447Z,17.26
2018-05-21T04:37:56.604Z,17.64
2018-05-21T04:38:56.798Z,18.03
2018-05-21T04:39:56.989Z,18.01
2018-05-21T04:40:57.167Z,17.90
2018-05-21T04:41:57.347Z,17.54
2018-05-21T04:42:57.536Z,18.18
2018-05-21T04:43:57.723Z,18.15
2018-05-21T04:44:57.911Z,17.97
2018-05-21T04:45:58.093Z,18.04
2018-05-21T04:46:58.295Z,18.74
2018-05-21T04:47:58.493Z,19.12
2018-05-21T04:48:58.671Z,19.39
2018-05-21T04:49:58.859Z,19.19
2018-05-21T04:50:59.048Z,19.51
2018-05-21T04:51:59.242Z,18.95
2018-05-21T04:52:59.429Z,19.33
2018-05-21T04:53:59.630Z,19.77
2018-05-21T04:54:59.814Z,19.66
2018-05-21T04:55:59.999Z,20.06
2018-05-21T04:57:00.200Z,20.36
2018-05-21T04:58:00.375Z,20.48
2018-05-21T04:59:00.558Z,20.37
2018-05-21T05:00:00.744Z,20.29
2018-05-21T05:02:01.124Z,20.70
2018-05-21T05:03:01.320Z,21.22
2018-05-21T05:04:01.501Z,21.58
2018-05-21T05:05:01.687Z,21.48
2018-05-21T05:06:01.879Z,21.46
2018-05-21T05:07:02.067Z,21.57
2018-05-21T05:08:02.267Z,21.98
2018-05-21T05:09:02.454Z,21.64
2018-05-21T05:10:02.642Z,21.57
2018-05-21T05:11:02.831Z,21.85
2018-05-21T05:12:03.021Z,21.83
2018-05-21T05:13:03.211Z,22.00
2018-05-21T05:14:03.398Z,21.98
2018-05-21T05:15:03.592Z,21.50
2018-05-21T05:16:03.776Z,21.51
2018-05-21T05:17:03.963Z,21.48
2018-05-21T05:18:04.166Z,21.33
2018-05-21T05:19:04.345Z,21.33
2018-05-21T05:20:04.540Z,21.07
2018-05-21T05:21:04.734Z,21.50
2018-05-21T05:22:04.928Z,21.54
2018-05-21T05:23:05.123Z,20.95
2018-05-21T05:24:05.306Z,20.97
2018-05-21T05:25:05.499Z,21.40
2018-05-21T05:26:05.688Z,21.52
2018-05-21T05:27:05.878Z,21.96
2018-05-21T05:28:06.081Z,21.54
2018-05-21T05:29:06.268Z,22.10
2018-05-21T05:30:06.459Z,22.26
2018-05-21T05:31:06.661Z,21.91
2018-05-21T05:32:06.847Z,21.64
2018-05-21T05:33:07.041Z,21.82
2018-05-21T05:34:07.234Z,21.51
2018-05-21T05:35:07.442Z,21.45
2018-05-21T05:36:07.673Z,21.21
2018-05-21T05:37:07.821Z,21.15
2018-05-21T05:38:08.019Z,20.69
2018-05-21T05:39:08.208Z,21.24
2018-05-21T05:40:08.399Z,21.43
2018-05-21T05:41:08.586Z,21.40
2018-05-21T05:42:08.871Z,21.48
2018-05-21T05:43:08.967Z,21.40
2018-05-21T05:44:09.158Z,20.80
2018-05-21T05:45:09.354Z,20.69
2018-05-21T05:46:09.545Z,21.27
2018-05-21T05:47:09.992Z,21.00
2018-05-21T05:48:09.927Z,20.74
2018-05-21T05:49:10.118Z,21.17
2018-05-21T05:50:10.309Z,20.92
2018-05-21T05:51:10.499Z,21.25
2018-05-21T05:52:10.687Z,21.55
2018-05-21T05:53:10.882Z,22.29
2018-05-21T05:54:11.080Z,21.92
2018-05-21T05:55:11.269Z,21.83
2018-05-21T05:56:11.464Z,22.18
2018-05-21T05:57:11.665Z,21.99
2018-05-21T05:58:11.856Z,22.47
2018-05-21T05:59:12.050Z,21.55
2018-05-21T06:00:12.250Z,21.14
2018-05-21T06:01:12.444Z,21.39
2018-05-21T06:02:12.627Z,21.98
2018-05-21T06:03:12.829Z,22.28
2018-05-21T06:04:13.014Z,21.20
2018-05-21T06:05:13.216Z,21.07
2018-05-21T06:06:13.407Z,21.54
2018-05-21T06:07:13.611Z,21.37
2018-05-21T06:08:13.785Z,21.07
2018-05-21T06:09:13.974Z,21.11
2018-05-21T06:10:14.166Z,21.12
2018-05-21T06:11:14.361Z,20.93
2018-05-21T06:12:14.559Z,20.87
2018-05-21T06:13:14.752Z,21.50
2018-05-21T06:14:14.946Z,21.51
2018-05-21T06:16:15.326Z,21.88
2018-05-21T06:17:15.523Z,22.17
2018-05-21T06:18:15.717Z,22.28
2018-05-21T06:19:15.900Z,21.96
2018-05-21T06:20:16.096Z,22.43
2018-05-21T06:21:16.289Z,22.06
2018-05-21T06:22:16.478Z,21.83
2018-05-21T06:23:16.678Z,21.99
2018-05-21T06:24:16.865Z,22.41
2018-05-21T06:25:17.074Z,22.68
2018-05-21T06:26:17.586Z,22.59
2018-05-21T06:27:17.453Z,22.38
2018-05-21T06:28:17.649Z,22.07
2018-05-21T06:29:17.846Z,21.96
2018-05-21T06:30:18.035Z,22.48
2018-05-21T06:31:18.220Z,23.13
2018-05-21T06:32:18.421Z,22.75
2018-05-21T06:33:18.619Z,22.47
2018-05-21T06:34:18.842Z,22.13
2018-05-21T06:35:18.983Z,22.10
2018-05-21T06:36:19.175Z,22.25
2018-05-21T06:37:19.345Z,21.54
2018-05-21T06:38:19.539Z,22.26
2018-05-21T06:39:19.736Z,22.15
2018-05-21T06:40:19.919Z,21.93
2018-05-21T06:41:20.106Z,21.33
2018-05-21T06:42:20.297Z,21.51
2018-05-21T06:43:20.492Z,21.29
2018-05-21T06:44:20.683Z,21.75
2018-05-21T06:45:20.883Z,21.55
2018-05-21T06:46:21.060Z,22.11
2018-05-21T06:47:21.538Z,21.77
2018-05-21T06:48:21.440Z,22.47
2018-05-21T06:49:21.627Z,22.91
2018-05-21T06:50:21.811Z,23.17
2018-05-21T06:51:22.002Z,22.96
2018-05-21T06:52:22.205Z,22.80
2018-05-21T06:53:22.392Z,22.81
2018-05-21T06:54:22.605Z,23.18
2018-05-21T06:55:22.799Z,23.31
2018-05-21T06:56:22.992Z,23.69
2018-05-21T06:57:23.182Z,23.59
2018-05-21T06:58:23.369Z,23.34
2018-05-21T06:59:23.557Z,23.39
2018-05-21T07:00:23.749Z,23.98
2018-05-21T07:01:23.946Z,23.36
2018-05-21T07:02:24.129Z,23.36
2018-05-21T07:03:24.319Z,24.28
2018-05-21T07:04:24.509Z,24.33
2018-05-21T07:05:24.694Z,24.18
2018-05-21T07:06:24.872Z,24.35
2018-05-21T07:07:25.062Z,24.24
2018-05-21T07:08:25.259Z,23.76
2018-05-21T07:09:25.459Z,23.44
2018-05-21T07:10:25.637Z,23.92
2018-05-21T07:11:25.840Z,23.80
2018-05-21T07:12:26.033Z,23.83
2018-05-21T07:13:26.209Z,23.13
2018-05-21T07:14:26.408Z,23.28
2018-05-21T07:15:26.591Z,23.18
2018-05-21T07:16:26.798Z,23.58
2018-05-21T07:17:26.992Z,23.87
2018-05-21T07:18:27.187Z,23.91
2018-05-21T07:19:27.371Z,24.10
2018-05-21T07:20:27.581Z,22.80
2018-05-21T07:21:27.762Z,22.72
2018-05-21T07:22:27.948Z,22.91
2018-05-21T07:23:28.147Z,22.94
2018-05-21T07:24:28.415Z,22.99
2018-05-21T07:25:28.524Z,22.83
2018-05-21T07:26:28.707Z,22.99
2018-05-21T07:27:28.902Z,23.02
2018-05-21T07:28:29.092Z,23.06
2018-05-21T07:29:29.285Z,23.21
2018-05-21T07:30:29.475Z,22.93
2018-05-21T07:31:29.677Z,22.54
2018-05-21T07:32:29.869Z,22.41
2018-05-21T07:33:30.053Z,22.43
2018-05-21T07:34:30.248Z,22.75
2018-05-21T07:35:30.564Z,22.94
2018-05-21T07:36:30.582Z,22.44
2018-05-21T07:37:30.781Z,22.43
2018-05-21T07:38:30.970Z,22.73
2018-05-21T07:39:31.175Z,23.20
2018-05-21T07:40:31.384Z,23.34
2018-05-21T07:41:31.558Z,22.66
2018-05-21T07:42:31.763Z,23.23
2018-05-21T07:43:31.934Z,23.27
2018-05-21T07:44:32.125Z,22.94
2018-05-21T07:45:32.323Z,23.37
2018-05-21T07:46:32.513Z,23.47
2018-05-21T07:47:32.700Z,23.68
2018-05-21T07:48:32.892Z,23.69
2018-05-21T07:49:33.088Z,23.81
2018-05-21T07:50:33.276Z,23.73
2018-05-21T07:51:33.485Z,23.73
2018-05-21T07:52:33.652Z,23.63
2018-05-21T07:53:33.836Z,23.78
2018-05-21T07:54:34.034Z,23.63
2018-05-21T07:55:34.205Z,23.62
2018-05-21T07:56:34.411Z,24.16
2018-05-21T07:57:34.575Z,24.43
2018-05-21T07:58:34.759Z,24.40
2018-05-21T07:59:34.940Z,25.08
2018-05-21T08:00:35.130Z,25.10
2018-05-21T08:01:35.317Z,24.54
2018-05-21T08:02:35.517Z,23.74
2018-05-21T08:03:35.685Z,23.69
2018-05-21T08:04:35.873Z,23.23
2018-05-21T08:05:36.075Z,23.37
2018-05-21T08:06:36.270Z,23.83
2018-05-21T08:07:36.461Z,23.98
2018-05-21T08:08:36.657Z,23.76
2018-05-21T08:09:36.838Z,23.46
2018-05-21T08:10:37.031Z,23.71
2018-05-21T08:11:37.468Z,23.95
2018-05-21T08:12:37.405Z,23.87
2018-05-21T08:13:37.605Z,24.33
2018-05-21T08:14:37.966Z,24.02
2018-05-21T08:15:37.970Z,24.53
2018-05-21T08:16:38.156Z,24.53
2018-05-21T08:17:38.365Z,24.13
2018-05-21T08:18:38.543Z,24.17
2018-05-21T08:19:38.716Z,24.53
2018-05-21T08:20:38.906Z,24.65
2018-05-21T08:21:39.106Z,24.28
2018-05-21T08:22:39.283Z,24.35
2018-05-21T08:23:39.479Z,24.68
2018-05-21T08:24:39.664Z,24.16
2018-05-21T08:25:39.837Z,24.39
2018-05-21T08:26:40.029Z,24.35
2018-05-21T08:27:40.213Z,24.42
2018-05-21T08:28:40.411Z,24.39
2018-05-21T08:29:40.600Z,24.50
2018-05-21T08:30:40.789Z,24.33
2018-05-21T08:31:40.978Z,24.50
2018-05-21T08:32:41.166Z,24.45
2018-05-21T08:33:41.361Z,24.53
2018-05-21T08:34:41.569Z,24.77
2018-05-21T08:35:41.756Z,23.43
2018-05-21T08:36:41.946Z,24.26
2018-05-21T08:37:42.123Z,24.23
2018-05-21T08:38:42.322Z,24.85
2018-05-21T08:39:42.511Z,25.04
2018-05-21T08:40:42.701Z,25.60
2018-05-21T08:41:42.886Z,25.43
2018-05-21T08:42:43.187Z,24.95
2018-05-21T08:43:43.271Z,25.33
2018-05-21T08:44:43.464Z,25.33
2018-05-21T08:45:43.673Z,25.43
2018-05-21T08:46:43.853Z,25.16
2018-05-21T08:47:44.041Z,25.51
2018-05-21T08:48:44.275Z,25.36
2018-05-21T08:49:44.418Z,25.77
2018-05-21T08:50:45.365Z,25.77
2018-05-21T08:51:44.806Z,26.03
2018-05-21T08:52:44.992Z,26.18
2018-05-21T08:54:45.373Z,26.65
2018-05-21T08:55:45.554Z,26.51
2018-05-21T08:56:45.770Z,26.41
2018-05-21T08:57:45.930Z,26.59
2018-05-21T08:58:46.143Z,26.70
2018-05-21T08:59:46.493Z,26.40
2018-05-21T09:00:46.449Z,26.63
2018-05-21T09:01:46.637Z,26.59
2018-05-21T09:02:46.833Z,26.45
2018-05-21T09:03:47.021Z,26.40
2018-05-21T09:04:47.263Z,26.21
2018-05-21T09:05:47.390Z,25.36
2018-05-21T09:06:47.588Z,24.18
2018-05-21T09:07:47.860Z,24.33
2018-05-21T09:08:47.957Z,24.70
2018-05-21T09:09:48.140Z,24.32
2018-05-21T09:10:48.321Z,24.84
2018-05-21T09:11:48.515Z,24.78
2018-05-21T09:12:48.691Z,25.55
2018-05-21T09:13:48.882Z,25.69
2018-05-21T09:14:49.082Z,25.31
2018-05-21T09:15:49.291Z,25.54
2018-05-21T09:16:49.463Z,25.25
2018-05-21T09:17:49.645Z,24.40
2018-05-21T09:18:49.838Z,24.29
2018-05-21T09:19:50.033Z,24.54
2018-05-21T09:20:50.222Z,24.55
2018-05-21T09:21:50.736Z,23.87
2018-05-21T09:22:50.613Z,24.33
2018-05-21T09:23:50.772Z,24.10
2018-05-21T09:24:50.974Z,23.59
2018-05-21T09:25:51.140Z,22.99
2018-05-21T09:26:51.340Z,23.68
2018-05-21T09:27:51.523Z,24.13
2018-05-21T09:28:51.719Z,24.57
2018-05-21T09:29:51.901Z,24.76
2018-05-21T09:30:52.097Z,25.18
2018-05-21T09:31:52.281Z,25.17
2018-05-21T09:32:52.466Z,25.04
2018-05-21T09:33:52.663Z,25.21
2018-05-21T09:34:52.838Z,25.44
2018-05-21T09:35:53.033Z,25.53
2018-05-21T09:36:53.210Z,25.85
2018-05-21T09:37:53.406Z,26.07
2018-05-21T09:38:53.597Z,26.18
2018-05-21T09:39:53.768Z,25.73
2018-05-21T09:40:53.964Z,23.81
2018-05-21T09:41:54.157Z,22.75
2018-05-21T09:42:54.342Z,23.09
2018-05-21T09:43:54.537Z,23.34
2018-05-21T09:44:54.733Z,23.91
2018-05-21T09:45:54.922Z,24.55
2018-05-21T09:46:55.102Z,24.20
2018-05-21T09:47:55.289Z,23.61
2018-05-21T09:48:55.489Z,23.50
2018-05-21T09:49:55.702Z,23.48
2018-05-21T09:50:55.943Z,23.78
2018-05-21T09:51:56.155Z,23.55
2018-05-21T09:52:56.913Z,23.69
2018-05-21T09:53:56.459Z,23.47
2018-05-21T09:54:56.643Z,23.48
2018-05-21T09:55:56.831Z,23.46
2018-05-21T09:56:57.030Z,23.13
2018-05-21T09:57:57.205Z,23.03
2018-05-21T09:58:57.409Z,23.55
2018-05-21T09:59:57.720Z,24.03
2018-05-21T10:00:57.998Z,24.17
2018-05-21T10:01:58.008Z,23.77
2018-05-21T10:02:58.192Z,23.74
2018-05-21T10:03:58.375Z,23.43
2018-05-21T10:04:58.549Z,22.70
2018-05-21T10:05:58.735Z,22.90
2018-05-21T10:06:58.920Z,23.10
2018-05-21T10:07:59.112Z,22.94
2018-05-21T10:08:59.304Z,23.09
2018-05-21T10:09:59.489Z,23.13
2018-05-21T10:10:59.943Z,22.96
2018-05-21T10:11:59.855Z,22.87
2018-05-21T10:13:00.910Z,23.05
2018-05-21T10:14:00.212Z,23.09
2018-05-21T10:15:00.410Z,23.50
2018-05-21T10:16:00.597Z,23.24
2018-05-21T10:17:00.799Z,23.39
2018-05-21T10:18:00.981Z,23.34
2018-05-21T10:19:01.163Z,23.43
2018-05-21T10:20:01.351Z,23.51
2018-05-21T10:21:01.533Z,23.44
2018-05-21T10:22:01.741Z,23.15
2018-05-21T10:23:01.888Z,23.28
2018-05-21T10:24:02.086Z,23.40
2018-05-21T10:25:02.276Z,23.73
2018-05-21T10:26:02.577Z,23.62
2018-05-21T10:27:02.693Z,23.43
2018-05-21T10:28:02.866Z,23.59
2018-05-21T10:29:03.058Z,23.65
2018-05-21T10:30:03.241Z,23.81
2018-05-21T10:31:03.420Z,23.93
2018-05-21T10:32:04.348Z,23.87
2018-05-21T10:33:03.806Z,23.71
2018-05-21T10:34:03.976Z,23.37
2018-05-21T10:35:04.165Z,23.23
2018-05-21T10:36:04.344Z,23.31
2018-05-21T10:37:04.619Z,23.54
2018-05-21T10:38:04.705Z,23.43
2018-05-21T10:39:04.883Z,23.34
2018-05-21T10:40:05.073Z,23.62
2018-05-21T10:41:05.258Z,23.50
2018-05-21T10:42:05.447Z,23.66
2018-05-21T10:43:05.659Z,24.16
2018-05-21T10:44:05.837Z,24.18
2018-05-21T10:45:06.023Z,23.98
2018-05-21T10:46:06.179Z,24.06
2018-05-21T10:47:06.399Z,23.46
2018-05-21T10:48:06.518Z,23.43
2018-05-21T10:49:06.699Z,23.47
2018-05-21T10:50:06.852Z,23.91
2018-05-21T10:51:07.042Z,23.54
2018-05-21T10:52:07.240Z,23.18
2018-05-21T10:53:07.397Z,23.68
2018-05-21T10:54:07.578Z,23.92
2018-05-21T10:55:07.778Z,24.13
2018-05-21T10:56:08.031Z,23.36
2018-05-21T10:57:08.123Z,23.68
2018-05-21T10:58:08.299Z,23.61
2018-05-21T10:59:08.482Z,23.47
2018-05-21T11:00:08.661Z,23.32
2018-05-21T11:01:08.851Z,23.25
2018-05-21T11:02:09.036Z,23.05
2018-05-21T11:03:09.222Z,23.28
2018-05-21T11:04:09.432Z,23.31
2018-05-21T11:05:09.596Z,23.28
2018-05-21T11:06:09.760Z,23.51
2018-05-21T11:07:09.951Z,23.48
2018-05-21T11:08:10.125Z,23.46
2018-05-21T11:09:10.299Z,23.34
2018-05-21T11:10:10.497Z,23.34
2018-05-21T11:11:10.669Z,23.44
2018-05-21T11:12:10.885Z,23.86
2018-05-21T11:13:11.025Z,24.28
2018-05-21T11:14:11.240Z,24.54
2018-05-21T11:15:11.366Z,24.14
2018-05-21T11:16:11.547Z,24.03
2018-05-21T11:17:11.727Z,23.76
2018-05-21T11:18:11.907Z,23.87
2018-05-21T11:19:12.106Z,23.86
2018-05-21T11:20:12.275Z,23.80
2018-05-21T11:21:12.485Z,23.83
2018-05-21T11:22:12.656Z,23.86
2018-05-21T11:23:12.850Z,23.31
2018-05-21T11:24:13.025Z,23.47
2018-05-21T11:25:13.218Z,23.28
2018-05-21T11:27:13.561Z,23.87
2018-05-21T11:28:13.737Z,23.88
2018-05-21T11:29:13.920Z,24.08
2018-05-21T11:30:14.093Z,23.87
2018-05-21T11:31:14.268Z,24.05
2018-05-21T11:32:14.463Z,24.20
2018-05-21T11:33:14.638Z,23.77
2018-05-21T11:34:14.832Z,23.92
2018-05-21T11:35:14.993Z,24.02
2018-05-21T11:36:15.214Z,23.44
2018-05-21T11:37:15.352Z,23.62
2018-05-21T11:38:15.544Z,23.50
2018-05-21T11:39:15.730Z,23.80
2018-05-21T11:40:15.900Z,23.59
2018-05-21T11:41:16.078Z,23.81
2018-05-21T11:42:16.252Z,24.17
2018-05-21T11:43:16.444Z,23.98
2018-05-21T11:44:16.626Z,23.99
2018-05-21T11:45:16.803Z,23.98
2018-05-21T11:46:17.032Z,23.65
2018-05-21T11:47:17.163Z,23.69
2018-05-21T11:48:17.334Z,23.55
2018-05-21T11:49:17.527Z,23.47
2018-05-21T11:50:17.687Z,23.44
2018-05-21T11:51:17.896Z,23.48
2018-05-21T11:52:18.080Z,23.66
2018-05-21T11:53:18.251Z,23.62
2018-05-21T11:54:18.413Z,23.73
2018-05-21T11:55:18.594Z,23.83
2018-05-21T11:56:18.785Z,23.48
2018-05-21T11:57:18.957Z,23.66
2018-05-21T11:58:19.172Z,23.61
2018-05-21T11:59:19.295Z,23.68
2018-05-21T12:00:19.496Z,23.62
2018-05-21T12:01:19.649Z,23.88
2018-05-21T12:02:19.839Z,24.02
2018-05-21T12:03:20.040Z,23.47
2018-05-21T12:04:20.214Z,23.65
2018-05-21T12:05:20.391Z,23.81
2018-05-21T12:06:20.569Z,24.24
2018-05-21T12:07:20.756Z,24.58
2018-05-21T12:08:20.905Z,24.50
2018-05-21T12:09:21.084Z,24.68
2018-05-21T12:10:21.296Z,24.77
2018-05-21T12:11:21.467Z,24.98
2018-05-21T12:12:21.642Z,24.92
2018-05-21T12:13:21.831Z,25.03
2018-05-21T12:14:21.990Z,25.03
2018-05-21T12:15:22.217Z,25.13
2018-05-21T12:16:22.407Z,25.44
2018-05-21T12:17:22.581Z,25.40
2018-05-21T12:18:22.735Z,25.06
2018-05-21T12:19:22.945Z,25.03
2018-05-21T12:20:23.115Z,24.89
2018-05-21T12:21:23.314Z,24.78
2018-05-21T12:22:23.476Z,24.39
2018-05-21T12:23:23.644Z,24.35
2018-05-21T12:24:23.830Z,24.33
2018-05-21T12:25:23.992Z,24.13
2018-05-21T12:26:24.164Z,23.86
2018-05-21T12:27:24.336Z,24.14
2018-05-21T12:28:24.513Z,24.54
2018-05-21T12:29:24.680Z,24.89
2018-05-21T12:30:24.886Z,24.86
2018-05-21T12:31:25.060Z,24.98
2018-05-21T12:32:25.240Z,24.29
2018-05-21T12:33:25.408Z,24.35
2018-05-21T12:34:25.579Z,24.02
2018-05-21T12:35:25.760Z,23.96
2018-05-21T12:36:25.954Z,24.11
2018-05-21T12:37:26.114Z,24.38
2018-05-21T12:38:26.300Z,24.50
2018-05-21T12:39:26.492Z,24.24
2018-05-21T12:40:26.658Z,24.20
2018-05-21T12:41:26.840Z,24.48
2018-05-21T12:42:27.015Z,23.99
2018-05-21T12:43:27.186Z,24.08
2018-05-21T12:44:27.363Z,24.20
2018-05-21T12:45:27.551Z,24.39
2018-05-21T12:46:27.741Z,24.35
2018-05-21T12:47:27.915Z,24.35
2018-05-21T12:48:28.102Z,24.40
2018-05-21T12:49:28.304Z,24.38
2018-05-21T12:50:28.457Z,24.40
2018-05-21T12:51:28.655Z,24.30
2018-05-21T12:52:28.847Z,24.29
2018-05-21T12:53:29.038Z,24.28
2018-05-21T12:54:29.217Z,24.26
2018-05-21T12:55:29.382Z,24.14
2018-05-21T12:56:29.589Z,24.38
2018-05-21T12:57:29.750Z,24.53
2018-05-21T12:58:29.928Z,24.50